createdAt,value
2017-10-23T00:01:30.830Z,85.40
2017-10-23T00:03:58.329Z,85.80
2017-10-23T00:06:25.813Z,85.40
2017-10-23T00:08:53.398Z,85.20
2017-10-23T00:11:21.670Z,85.50
2017-10-23T00:13:49.949Z,85.30
2017-10-23T00:16:18.231Z,85.40
2017-10-23T00:18:45.788Z,85.30
2017-10-23T00:21:14.060Z,85.30
2017-10-23T00:23:42.321Z,85.40
2017-10-23T00:26:10.621Z,85.60
2017-10-23T00:28:38.125Z,85.30
2017-10-23T00:31:05.634Z,85.40
2017-10-23T00:33:33.144Z,85.40
2017-10-23T00:36:00.672Z,85.60
2017-10-23T00:38:28.206Z,85.50
2017-10-23T00:40:56.465Z,85.50
2017-10-23T00:43:24.741Z,85.80
2017-10-23T00:45:53.019Z,85.80
2017-10-23T00:48:21.335Z,86.00
2017-10-23T00:50:48.879Z,85.90
2017-10-23T00:53:16.441Z,86.00
2017-10-23T00:55:43.999Z,86.10
2017-10-23T00:58:11.514Z,86.20
2017-10-23T01:00:39.007Z,86.20
2017-10-23T01:03:06.508Z,86.10
2017-10-23T01:05:34.026Z,85.90
2017-10-23T01:08:01.527Z,86.00
2017-10-23T01:10:29.035Z,86.80
2017-10-23T01:12:57.296Z,86.10
2017-10-23T01:15:25.558Z,86.10
2017-10-23T01:17:53.052Z,86.10
2017-10-23T01:20:20.532Z,86.00
2017-10-23T01:22:48.053Z,86.00
2017-10-23T01:25:16.362Z,86.00
2017-10-23T01:27:43.913Z,86.00
2017-10-23T01:30:11.422Z,86.00
2017-10-23T01:32:38.905Z,86.00
2017-10-23T01:35:07.196Z,86.00
2017-10-23T01:37:34.692Z,86.00
2017-10-23T01:40:02.226Z,85.80
2017-10-23T01:42:29.727Z,86.00
2017-10-23T01:44:57.236Z,86.00
2017-10-23T01:47:24.745Z,86.20
2017-10-23T01:49:52.246Z,86.20
2017-10-23T01:52:19.741Z,86.00
2017-10-23T01:54:47.229Z,86.00
2017-10-23T01:57:14.874Z,86.10
2017-10-23T01:59:42.563Z,86.30
2017-10-23T02:02:10.877Z,86.30
2017-10-23T02:04:38.377Z,86.30
2017-10-23T02:07:05.887Z,86.30
2017-10-23T02:09:33.382Z,86.10
2017-10-23T02:12:01.001Z,86.00
2017-10-23T02:14:28.502Z,85.90
2017-10-23T02:16:55.994Z,85.80
2017-10-23T02:19:24.282Z,85.80
2017-10-23T02:21:51.833Z,85.90
2017-10-23T02:24:20.121Z,85.90
2017-10-23T02:26:47.614Z,85.80
2017-10-23T02:29:15.111Z,85.90
2017-10-23T02:31:42.622Z,85.70
2017-10-23T02:34:10.110Z,85.70
2017-10-23T02:36:38.281Z,85.70
2017-10-23T02:39:05.800Z,85.90
2017-10-23T02:41:33.298Z,85.80
2017-10-23T02:44:00.898Z,85.70
2017-10-23T02:46:29.149Z,85.70
2017-10-23T02:48:56.652Z,85.70
2017-10-23T02:51:24.186Z,86.30
2017-10-23T02:53:52.446Z,85.70
2017-10-23T02:56:20.720Z,85.50
2017-10-23T02:58:48.299Z,85.50
2017-10-23T03:01:15.858Z,85.50
2017-10-23T03:03:44.109Z,85.50
2017-10-23T03:06:13.111Z,85.30
2017-10-23T03:08:41.413Z,85.30
2017-10-23T03:11:08.905Z,85.90
2017-10-23T03:13:36.417Z,85.20
2017-10-23T03:16:04.680Z,85.10
2017-10-23T03:18:32.938Z,85.80
2017-10-23T03:21:00.428Z,85.20
2017-10-23T03:23:28.687Z,85.60
2017-10-23T03:25:56.986Z,85.70
2017-10-23T03:28:24.543Z,85.60
2017-10-23T03:30:52.100Z,85.60
2017-10-23T03:33:19.605Z,85.50
2017-10-23T03:35:47.143Z,85.40
2017-10-23T03:38:14.701Z,85.30
2017-10-23T03:40:42.257Z,85.30
2017-10-23T03:43:09.755Z,85.50
2017-10-23T03:45:37.267Z,85.70
2017-10-23T03:48:04.798Z,85.60
2017-10-23T03:50:33.078Z,85.80
2017-10-23T03:53:01.333Z,85.80
2017-10-23T03:55:28.924Z,85.80
2017-10-23T03:57:56.421Z,85.70
2017-10-23T04:00:23.928Z,85.70
2017-10-23T04:02:52.210Z,85.70
2017-10-23T04:05:20.472Z,85.70
2017-10-23T04:07:48.737Z,85.50
2017-10-23T04:10:16.249Z,85.50
2017-10-23T04:12:43.737Z,85.50
2017-10-23T04:15:12.780Z,85.30
2017-10-23T04:17:40.333Z,85.30
2017-10-23T04:20:07.821Z,85.30
2017-10-23T04:22:35.351Z,85.60
2017-10-23T04:25:02.856Z,85.40
2017-10-23T04:27:30.377Z,85.50
2017-10-23T04:29:57.931Z,85.40
2017-10-23T04:32:25.483Z,85.40
2017-10-23T04:34:53.761Z,85.40
2017-10-23T04:37:22.023Z,85.40
2017-10-23T04:39:50.301Z,85.50
2017-10-23T04:42:19.231Z,85.50
2017-10-23T04:44:46.724Z,85.40
2017-10-23T04:47:14.314Z,85.50
2017-10-23T04:49:42.582Z,85.20
2017-10-23T04:52:10.884Z,85.00
2017-10-23T04:54:38.434Z,85.00
2017-10-23T04:57:05.926Z,85.00
2017-10-23T04:59:33.447Z,85.10
2017-10-23T05:02:01.706Z,85.00
2017-10-23T05:04:29.992Z,85.70
2017-10-23T05:06:58.255Z,84.90
2017-10-23T05:09:26.538Z,85.00
2017-10-23T05:11:54.814Z,85.60
2017-10-23T05:14:23.109Z,85.20
2017-10-23T05:16:50.626Z,85.10
2017-10-23T05:19:18.281Z,85.50
2017-10-23T05:21:45.770Z,85.50
2017-10-23T05:26:47.745Z,84.80
2017-10-23T05:29:16.032Z,84.60
2017-10-23T05:31:44.286Z,84.40
2017-10-23T05:34:11.913Z,84.30
2017-10-23T05:36:39.417Z,84.10
2017-10-23T05:39:07.798Z,84.10
2017-10-23T05:41:36.197Z,84.10
2017-10-23T05:44:03.720Z,84.00
2017-10-23T05:46:31.218Z,84.20
2017-10-23T05:48:58.768Z,84.10
2017-10-23T05:51:26.404Z,83.90
2017-10-23T05:53:53.930Z,83.90
2017-10-23T05:56:21.441Z,83.80
2017-10-23T05:58:49.697Z,82.60
2017-10-23T06:01:17.201Z,83.60
2017-10-23T06:03:45.658Z,82.80
2017-10-23T06:06:13.203Z,83.70
2017-10-23T06:08:40.691Z,82.60
2017-10-23T06:11:08.175Z,82.80
2017-10-23T06:13:36.229Z,82.20
2017-10-23T06:16:03.721Z,83.20
2017-10-23T06:18:31.246Z,82.20
2017-10-23T06:20:58.737Z,83.20
2017-10-23T06:23:26.233Z,83.10
2017-10-23T06:25:54.503Z,83.30
2017-10-23T06:28:22.763Z,83.40
2017-10-23T06:30:51.056Z,83.30
2017-10-23T06:33:19.309Z,83.30
2017-10-23T06:35:46.813Z,83.30
2017-10-23T06:38:14.325Z,83.30
2017-10-23T06:40:42.851Z,83.30
2017-10-23T06:43:10.357Z,83.90
2017-10-23T06:45:37.962Z,83.20
2017-10-23T06:48:05.484Z,83.40
2017-10-23T06:50:33.063Z,83.20
2017-10-23T06:53:01.321Z,82.00
2017-10-23T06:55:28.846Z,83.00
2017-10-23T06:57:56.345Z,81.80
2017-10-23T07:00:24.630Z,81.90
2017-10-23T07:02:52.960Z,81.80
2017-10-23T07:05:20.474Z,81.60
2017-10-23T07:07:48.737Z,81.40
2017-10-23T07:10:17.019Z,81.00
2017-10-23T07:12:45.305Z,80.70
2017-10-23T07:15:12.803Z,80.70
2017-10-23T07:17:40.304Z,80.60
2017-10-23T07:20:08.615Z,80.00
2017-10-23T07:22:36.226Z,80.00
2017-10-23T07:25:03.877Z,79.70
2017-10-23T07:27:31.495Z,79.60
2017-10-23T07:29:58.984Z,79.30
2017-10-23T07:32:26.493Z,79.10
2017-10-23T07:34:53.993Z,78.60
2017-10-23T07:37:21.617Z,78.70
2017-10-23T07:39:49.113Z,78.80
2017-10-23T07:42:16.604Z,78.50
2017-10-23T07:44:44.110Z,78.10
2017-10-23T07:47:11.618Z,77.70
2017-10-23T07:49:39.980Z,78.30
2017-10-23T07:52:07.618Z,78.30
2017-10-23T07:54:35.116Z,78.20
2017-10-23T07:57:03.517Z,78.40
2017-10-23T07:59:31.780Z,77.30
2017-10-23T08:02:00.057Z,77.50
2017-10-23T08:04:28.367Z,77.70
2017-10-23T08:06:55.951Z,77.70
2017-10-23T08:09:23.460Z,77.60
2017-10-23T08:11:51.738Z,78.10
2017-10-23T08:14:20.241Z,78.40
2017-10-23T08:16:47.737Z,78.30
2017-10-23T08:19:15.340Z,77.70
2017-10-23T08:21:43.383Z,78.00
2017-10-23T08:24:11.696Z,77.40
2017-10-23T08:26:39.259Z,77.30
2017-10-23T08:29:06.801Z,77.50
2017-10-23T08:31:35.070Z,76.80
2017-10-23T08:34:03.458Z,76.20
2017-10-23T08:36:31.717Z,75.80
2017-10-23T08:39:00.003Z,74.80
2017-10-23T08:41:27.530Z,74.70
2017-10-23T08:43:55.025Z,74.00
2017-10-23T08:46:23.293Z,72.60
2017-10-23T08:48:51.609Z,71.40
2017-10-23T08:51:19.118Z,71.30
2017-10-23T08:53:47.370Z,69.90
2017-10-23T08:56:14.996Z,69.70
2017-10-23T08:58:42.497Z,70.50
2017-10-23T09:01:09.996Z,70.50
2017-10-23T09:03:37.509Z,68.70
2017-10-23T09:06:05.077Z,67.70
2017-10-23T09:08:32.569Z,66.50
2017-10-23T09:11:00.213Z,65.00
2017-10-23T09:13:28.474Z,63.60
2017-10-23T09:15:56.106Z,63.60
2017-10-23T09:18:23.917Z,63.10
2017-10-23T09:20:52.168Z,59.00
2017-10-23T09:23:19.734Z,58.90
2017-10-23T09:25:47.349Z,58.20
2017-10-23T09:28:14.925Z,56.80
2017-10-23T09:30:42.433Z,54.50
2017-10-23T09:33:10.685Z,58.30
2017-10-23T09:35:38.177Z,58.30
2017-10-23T09:38:05.738Z,59.30
2017-10-23T09:40:33.241Z,58.40
2017-10-23T09:43:01.539Z,57.50
2017-10-23T09:45:29.020Z,57.40
2017-10-23T09:47:57.286Z,58.20
2017-10-23T09:50:25.545Z,59.00
2017-10-23T09:52:53.066Z,58.90
2017-10-23T09:55:20.572Z,58.80
2017-10-23T09:57:48.882Z,58.60
2017-10-23T10:00:16.536Z,58.60
2017-10-23T10:02:44.094Z,57.60
2017-10-23T10:05:11.657Z,58.30
2017-10-23T10:07:39.146Z,58.50
2017-10-23T10:10:06.688Z,58.50
2017-10-23T10:12:34.961Z,58.50
2017-10-23T10:15:02.495Z,58.40
2017-10-23T10:17:30.804Z,58.90
2017-10-23T10:19:58.330Z,58.80
2017-10-23T10:22:26.608Z,60.50
2017-10-23T10:24:54.871Z,60.70
2017-10-23T10:27:23.174Z,60.90
2017-10-23T10:29:50.689Z,60.90
2017-10-23T10:32:18.933Z,60.30
2017-10-23T10:34:46.474Z,60.20
2017-10-23T10:37:13.973Z,60.00
2017-10-23T10:39:42.437Z,58.00
2017-10-23T10:42:09.945Z,56.50
2017-10-23T10:44:38.199Z,53.10
2017-10-23T10:47:05.684Z,53.00
2017-10-23T10:49:33.960Z,49.20
2017-10-23T10:52:02.230Z,47.40
2017-10-23T10:54:30.104Z,47.40
2017-10-23T10:56:58.415Z,48.00
2017-10-23T10:59:25.905Z,48.00
2017-10-23T11:01:53.421Z,49.40
2017-10-23T11:04:20.948Z,49.60
2017-10-23T11:06:48.509Z,50.40
2017-10-23T11:09:16.796Z,50.10
2017-10-23T11:11:45.073Z,50.00
2017-10-23T11:14:12.573Z,49.20
2017-10-23T11:16:40.098Z,48.90
2017-10-23T11:19:07.733Z,51.20
2017-10-23T11:21:35.991Z,54.20
2017-10-23T11:24:03.507Z,54.10
2017-10-23T11:26:31.019Z,54.50
2017-10-23T11:28:59.293Z,54.40
2017-10-23T11:31:28.333Z,54.10
2017-10-23T11:33:55.858Z,53.50
2017-10-23T11:36:24.159Z,55.40
2017-10-23T11:38:51.653Z,55.40
2017-10-23T11:41:19.168Z,57.20
2017-10-23T11:43:46.746Z,58.70
2017-10-23T11:46:14.231Z,59.90
2017-10-23T11:48:41.722Z,61.40
2017-10-23T11:51:10.001Z,62.60
2017-10-23T11:53:37.559Z,62.60
2017-10-23T11:56:05.833Z,61.30
2017-10-23T11:58:34.113Z,61.90
2017-10-23T12:01:02.389Z,62.30
2017-10-23T12:03:30.667Z,63.10
2017-10-23T12:05:58.945Z,64.30
2017-10-23T12:08:27.285Z,64.70
2017-10-23T12:10:56.295Z,65.20
2017-10-23T12:13:23.822Z,65.10
2017-10-23T12:15:51.346Z,66.00
2017-10-23T12:18:18.855Z,66.90
2017-10-23T12:20:47.930Z,67.90
2017-10-23T12:23:15.495Z,67.90
2017-10-23T12:25:43.009Z,67.50
2017-10-23T12:28:10.570Z,66.40
2017-10-23T12:30:38.056Z,64.30
2017-10-23T12:33:05.602Z,61.60
2017-10-23T12:35:33.089Z,60.50
2017-10-23T12:38:00.582Z,59.80
2017-10-23T12:40:28.845Z,63.20
2017-10-23T12:42:56.434Z,62.50
2017-10-23T12:45:23.949Z,65.20
2017-10-23T12:47:51.613Z,67.60
2017-10-23T12:50:19.097Z,68.80
2017-10-23T12:52:47.364Z,71.80
2017-10-23T12:55:15.677Z,72.80
2017-10-23T12:57:43.183Z,72.60
2017-10-23T13:00:10.668Z,73.30
2017-10-23T13:02:38.959Z,73.50
2017-10-23T13:05:06.534Z,73.40
2017-10-23T13:07:34.077Z,73.30
2017-10-23T13:10:01.589Z,72.80
2017-10-23T13:12:29.109Z,72.70
2017-10-23T13:14:56.657Z,73.40
2017-10-23T13:17:24.158Z,73.90
2017-10-23T13:19:51.686Z,74.10
2017-10-23T13:22:19.344Z,74.60
2017-10-23T13:24:46.824Z,75.90
2017-10-23T13:27:14.541Z,74.80
2017-10-23T13:29:42.900Z,75.50
2017-10-23T13:32:10.570Z,75.50
2017-10-23T13:34:38.163Z,75.70
2017-10-23T13:37:05.704Z,75.30
2017-10-23T13:39:33.987Z,75.20
2017-10-23T13:42:01.550Z,75.30
2017-10-23T13:44:29.099Z,75.60
2017-10-23T13:46:56.763Z,75.90
2017-10-23T13:49:24.250Z,76.40
2017-10-23T13:51:51.730Z,76.60
2017-10-23T13:54:19.229Z,77.40
2017-10-23T13:56:47.473Z,77.50
2017-10-23T13:59:15.066Z,77.50
2017-10-23T14:01:43.534Z,77.90
2017-10-23T14:04:11.818Z,78.50
2017-10-23T14:06:40.094Z,78.80
2017-10-23T14:09:08.353Z,78.70
2017-10-23T14:11:35.934Z,78.60
2017-10-23T14:14:03.498Z,78.70
2017-10-23T14:16:31.059Z,78.70
2017-10-23T14:18:58.573Z,78.50
2017-10-23T14:21:26.085Z,78.90
2017-10-23T14:23:53.758Z,78.90
2017-10-23T14:26:21.312Z,79.40
2017-10-23T14:28:48.801Z,79.60
2017-10-23T14:31:16.295Z,79.90
2017-10-23T14:33:44.564Z,79.90
2017-10-23T14:36:12.187Z,79.70
2017-10-23T14:38:39.677Z,80.10
2017-10-23T14:41:07.164Z,80.40
2017-10-23T14:43:34.658Z,80.80
2017-10-23T14:46:02.192Z,81.00
2017-10-23T14:48:29.792Z,81.20
2017-10-23T14:50:57.286Z,81.60
2017-10-23T14:53:24.791Z,81.30
2017-10-23T14:55:52.298Z,81.30
2017-10-23T14:58:19.872Z,81.20
2017-10-23T15:00:48.977Z,81.20
2017-10-23T15:03:16.489Z,80.80
2017-10-23T15:05:43.972Z,80.30
2017-10-23T15:08:12.249Z,80.50
2017-10-23T15:10:40.501Z,80.40
2017-10-23T15:13:09.525Z,80.50
2017-10-23T15:15:37.076Z,80.50
2017-10-23T15:18:05.330Z,80.80
2017-10-23T15:20:32.827Z,80.70
2017-10-23T15:23:00.377Z,80.90
2017-10-23T15:25:27.939Z,81.10
2017-10-23T15:27:55.490Z,81.00
2017-10-23T15:30:23.768Z,81.30
2017-10-23T15:32:52.149Z,81.30
2017-10-23T15:35:19.637Z,81.30
2017-10-23T15:37:47.148Z,81.50
2017-10-23T15:40:15.414Z,82.00
2017-10-23T15:42:42.969Z,82.00
2017-10-23T15:45:10.549Z,82.00
2017-10-23T15:47:39.409Z,82.00
2017-10-23T15:50:06.926Z,82.00
2017-10-23T15:52:34.427Z,82.40
2017-10-23T15:55:01.928Z,82.40
2017-10-23T15:57:29.427Z,82.50
2017-10-23T15:59:56.920Z,82.70
2017-10-23T16:02:25.413Z,82.80
2017-10-23T16:04:52.910Z,83.10
2017-10-23T16:07:20.400Z,83.30
2017-10-23T16:09:48.712Z,83.80
2017-10-23T16:12:16.205Z,83.70
2017-10-23T16:14:43.714Z,83.60
2017-10-23T16:17:11.974Z,83.70
2017-10-23T16:19:39.526Z,83.60
2017-10-23T16:22:07.125Z,83.80
2017-10-23T16:24:34.641Z,84.40
2017-10-23T16:27:02.203Z,83.80
2017-10-23T16:29:29.690Z,83.80
2017-10-23T16:31:58.808Z,83.80
2017-10-23T16:34:32.177Z,83.80
2017-10-23T16:37:03.860Z,83.80
2017-10-23T16:39:31.388Z,83.80
2017-10-23T16:41:59.657Z,84.10
2017-10-23T16:44:27.955Z,84.00
2017-10-23T16:46:55.461Z,83.90
2017-10-23T16:49:30.254Z,84.10
2017-10-23T16:51:58.117Z,84.10
2017-10-23T16:54:27.198Z,84.20
2017-10-23T16:56:55.491Z,84.60
2017-10-23T16:59:22.992Z,84.60
2017-10-23T17:02:08.591Z,85.00
2017-10-23T17:04:36.488Z,85.20
2017-10-23T17:07:04.013Z,85.30
2017-10-23T17:09:32.324Z,85.60
2017-10-23T17:12:14.302Z,85.50
2017-10-23T17:14:48.077Z,85.70
2017-10-23T17:17:19.523Z,85.70
2017-10-23T17:19:47.955Z,85.80
2017-10-23T17:22:15.493Z,85.70
2017-10-23T17:24:43.877Z,85.80
2017-10-23T17:27:12.185Z,85.80
2017-10-23T17:29:39.841Z,85.70
2017-10-23T17:32:07.384Z,85.90
2017-10-23T17:34:34.953Z,86.00
2017-10-23T17:37:02.450Z,86.20
2017-10-23T17:39:29.961Z,86.30
2017-10-23T17:41:57.512Z,86.40
2017-10-23T17:44:25.818Z,86.10
2017-10-23T17:46:53.353Z,86.00
2017-10-23T17:49:20.845Z,85.90
2017-10-23T17:51:48.561Z,85.60
2017-10-23T17:54:16.851Z,85.20
2017-10-23T17:56:44.438Z,85.20
2017-10-23T17:59:11.948Z,85.00
2017-10-23T18:01:39.459Z,84.90
2017-10-23T18:04:07.545Z,85.00
2017-10-23T18:06:35.062Z,84.70
2017-10-23T18:09:02.545Z,84.60
2017-10-23T18:11:30.055Z,84.60
2017-10-23T18:13:57.563Z,84.50
2017-10-23T18:16:25.110Z,84.40
2017-10-23T18:18:52.644Z,84.20
2017-10-23T18:21:20.928Z,88.60
2017-10-23T18:23:48.489Z,88.60
2017-10-23T18:26:15.988Z,91.10
2017-10-23T18:28:43.501Z,91.30
2017-10-23T18:31:11.837Z,91.10
2017-10-23T18:33:39.427Z,91.10
2017-10-23T18:36:07.812Z,90.30
2017-10-23T18:38:36.066Z,90.80
2017-10-23T18:41:03.674Z,90.70
2017-10-23T18:43:31.182Z,90.80
2017-10-23T18:45:58.672Z,90.30
2017-10-23T18:48:26.192Z,90.10
2017-10-23T18:50:53.690Z,90.60
2017-10-23T18:53:21.181Z,90.60
2017-10-23T18:55:48.711Z,90.00
2017-10-23T18:58:16.208Z,88.20
2017-10-23T19:00:43.817Z,90.00
2017-10-23T19:03:12.089Z,87.30
2017-10-23T19:05:40.345Z,88.30
2017-10-23T19:08:07.940Z,88.30
2017-10-23T19:10:35.452Z,87.90
2017-10-23T19:13:03.067Z,88.00
2017-10-23T19:15:30.565Z,88.00
2017-10-23T19:17:58.068Z,88.50
2017-10-23T19:20:26.343Z,87.20
2017-10-23T19:22:54.600Z,87.80
2017-10-23T19:25:22.942Z,86.70
2017-10-23T19:27:50.577Z,86.70
2017-10-23T19:30:18.120Z,86.70
2017-10-23T19:32:45.672Z,86.40
2017-10-23T19:35:13.234Z,86.40
2017-10-23T19:37:41.612Z,86.80
2017-10-23T19:40:10.832Z,86.90
2017-10-23T19:42:38.343Z,86.90
2017-10-23T19:45:06.646Z,87.50
2017-10-23T19:47:35.571Z,87.30
2017-10-23T19:50:03.165Z,87.30
2017-10-23T19:52:30.762Z,87.50
2017-10-23T19:54:58.386Z,87.50
2017-10-23T19:57:26.680Z,87.40
2017-10-23T19:59:54.265Z,87.30
2017-10-23T20:02:23.727Z,87.40
2017-10-23T20:04:52.006Z,87.60
2017-10-23T20:07:20.274Z,87.70
2017-10-23T20:09:47.838Z,87.30
2017-10-23T20:12:15.435Z,87.30
2017-10-23T20:14:44.351Z,87.40
2017-10-23T20:17:11.849Z,87.40
2017-10-23T20:19:39.340Z,87.30
2017-10-23T20:22:07.235Z,87.20
2017-10-23T20:24:37.745Z,87.30
2017-10-23T20:27:06.826Z,87.20
2017-10-23T20:29:34.350Z,87.20
2017-10-23T20:32:02.288Z,87.10
2017-10-23T20:34:30.695Z,87.20
2017-10-23T20:36:58.213Z,87.10
2017-10-23T20:39:25.771Z,87.10
2017-10-23T20:41:53.265Z,87.10
2017-10-23T20:44:24.146Z,86.90
2017-10-23T20:46:51.730Z,86.80
2017-10-23T20:49:20.230Z,86.50
2017-10-23T20:51:48.571Z,86.20
2017-10-23T20:54:16.074Z,86.20
2017-10-23T20:56:43.730Z,86.30
2017-10-23T20:59:12.046Z,86.00
2017-10-23T21:01:40.305Z,85.90
2017-10-23T21:04:07.946Z,85.90
2017-10-23T21:06:35.475Z,86.00
2017-10-23T21:09:03.130Z,85.80
2017-10-23T21:11:31.784Z,85.70
2017-10-23T21:14:00.057Z,85.30
2017-10-23T21:16:27.571Z,85.70
2017-10-23T21:18:55.154Z,85.90
2017-10-23T21:21:22.848Z,86.20
2017-10-23T21:23:51.109Z,87.50
2017-10-23T21:26:18.618Z,87.30
2017-10-23T21:28:46.262Z,87.70
2017-10-23T21:31:14.957Z,88.20
2017-10-23T21:33:42.528Z,88.10
2017-10-23T21:36:10.033Z,88.30
2017-10-23T21:38:37.638Z,88.60
2017-10-23T21:41:05.174Z,89.10
2017-10-23T21:43:32.689Z,88.90
2017-10-23T21:46:00.486Z,89.00
2017-10-23T21:48:28.046Z,88.90
2017-10-23T21:50:56.332Z,88.80
2017-10-23T21:53:24.024Z,88.80
2017-10-23T21:55:51.518Z,88.80
2017-10-23T21:58:19.146Z,88.60
2017-10-23T22:00:47.049Z,88.50
2017-10-23T22:03:14.737Z,88.40
2017-10-23T22:05:43.226Z,88.10
2017-10-23T22:08:10.806Z,88.10
2017-10-23T22:10:38.432Z,88.10
2017-10-23T22:13:06.734Z,87.50
2017-10-23T22:15:34.394Z,87.50
2017-10-23T22:18:01.917Z,87.20
2017-10-23T22:20:29.411Z,86.80
2017-10-23T22:22:57.126Z,86.90
2017-10-23T22:25:25.841Z,86.70
2017-10-23T22:27:54.128Z,86.60
2017-10-23T22:30:21.705Z,86.50
2017-10-23T22:32:49.230Z,86.70
2017-10-23T22:35:17.481Z,87.00
2017-10-23T22:37:44.984Z,87.00
2017-10-23T22:40:13.414Z,87.20
2017-10-23T22:42:40.933Z,87.20
2017-10-23T22:45:08.420Z,87.00
2017-10-23T22:47:35.917Z,86.70
2017-10-23T22:50:04.189Z,87.00
2017-10-23T22:52:32.567Z,86.90
2017-10-23T22:55:00.129Z,86.90
2017-10-23T22:57:27.756Z,87.00
2017-10-23T22:59:55.368Z,87.10
2017-10-23T23:02:22.929Z,87.20
2017-10-23T23:04:50.460Z,87.30
2017-10-23T23:07:17.980Z,87.40
2017-10-23T23:09:45.470Z,88.00
2017-10-23T23:12:13.069Z,87.50
2017-10-23T23:14:40.709Z,87.60
2017-10-23T23:17:08.970Z,87.70
2017-10-23T23:19:36.557Z,87.60
2017-10-23T23:22:04.266Z,88.00
2017-10-23T23:24:31.789Z,87.80
2017-10-23T23:26:59.299Z,87.60
2017-10-23T23:29:26.797Z,87.80
2017-10-23T23:31:54.354Z,87.70
2017-10-23T23:34:21.847Z,87.90
2017-10-23T23:36:49.361Z,88.00
2017-10-23T23:39:16.868Z,88.10
2017-10-23T23:41:44.389Z,88.10
2017-10-23T23:44:11.903Z,88.10
2017-10-23T23:46:39.401Z,88.20
2017-10-23T23:49:06.893Z,88.30
2017-10-23T23:51:34.391Z,88.30
2017-10-23T23:54:01.882Z,88.40
2017-10-23T23:56:29.380Z,88.40
2017-10-23T23:58:56.855Z,88.50
